States of Jersey

Home Log in

Channel Islands Terminal Aerodrome Forecasts (TAFs) issued Monday, 22 January 2018

Jersey Airport - EGJJ

220510Z 2206/2215 25030G40KT 2000 RADZ BR BKN002 TEMPO 2206/2208 0200 +RADZ FG BKN000 BECMG 2208/2210 33030G40KT 9999 NSW BKN010 BECMG 2210/2212 33020KT=

Guernsey Airport - EGJB

220510Z 2206/2215 25030G40KT 2000 RADZ BR BKN002 TEMPO 2206/2208 0200 +RADZ FG BKN000 BECMG 2207/2209 33030G40KT 9999 NSW BKN010 BECMG 2209/2211 33020KT=

Alderney Airport - EGJA

220510Z 2207/2215 Nil